sensor_id;sensor_type;location;lat;lon;timestamp;P1;durP1;ratioP1;P2;durP2;ratioP2
56999;SDS011;42891;50.006;21.964;2023-06-14T00:03:38;10.00;;;7.25;;
56999;SDS011;42891;50.006;21.964;2023-06-14T00:07:40;11.98;;;7.60;;
56999;SDS011;42891;50.006;21.964;2023-06-14T00:11:44;10.77;;;7.70;;
56999;SDS011;42891;50.006;21.964;2023-06-14T00:15:45;10.57;;;7.10;;
56999;SDS011;42891;50.006;21.964;2023-06-14T00:19:46;13.82;;;9.25;;
56999;SDS011;42891;50.006;21.964;2023-06-14T00:23:47;11.93;;;8.45;;
56999;SDS011;42891;50.006;21.964;2023-06-14T00:27:47;12.87;;;7.00;;
56999;SDS011;42891;50.006;21.964;2023-06-14T00:31:47;11.68;;;6.72;;
56999;SDS011;42891;50.006;21.964;2023-06-14T00:35:48;10.07;;;6.40;;
56999;SDS011;42891;50.006;21.964;2023-06-14T00:39:48;10.40;;;7.20;;
56999;SDS011;42891;50.006;21.964;2023-06-14T00:43:48;10.30;;;6.90;;
56999;SDS011;42891;50.006;21.964;2023-06-14T00:47:49;8.32;;;6.55;;
56999;SDS011;42891;50.006;21.964;2023-06-14T00:51:52;15.02;;;9.70;;
56999;SDS011;42891;50.006;21.964;2023-06-14T00:55:53;14.65;;;11.23;;
56999;SDS011;42891;50.006;21.964;2023-06-14T00:59:53;16.27;;;12.65;;
56999;SDS011;42891;50.006;21.964;2023-06-14T01:03:55;16.45;;;11.32;;
56999;SDS011;42891;50.006;21.964;2023-06-14T01:12:13;17.80;;;11.80;;
56999;SDS011;42891;50.006;21.964;2023-06-14T01:16:21;11.57;;;9.05;;
56999;SDS011;42891;50.006;21.964;2023-06-14T01:20:22;10.18;;;7.97;;
56999;SDS011;42891;50.006;21.964;2023-06-14T01:24:22;10.85;;;8.32;;
56999;SDS011;42891;50.006;21.964;2023-06-14T01:28:31;13.77;;;10.55;;
56999;SDS011;42891;50.006;21.964;2023-06-14T01:32:33;14.02;;;10.93;;
56999;SDS011;42891;50.006;21.964;2023-06-14T01:36:34;14.77;;;10.23;;
56999;SDS011;42891;50.006;21.964;2023-06-14T01:40:37;14.65;;;12.82;;
56999;SDS011;42891;50.006;21.964;2023-06-14T01:44:39;21.42;;;17.10;;
56999;SDS011;42891;50.006;21.964;2023-06-14T01:48:42;16.73;;;14.50;;
56999;SDS011;42891;50.006;21.964;2023-06-14T01:52:44;9.43;;;7.97;;
56999;SDS011;42891;50.006;21.964;2023-06-14T01:56:44;13.90;;;8.30;;
56999;SDS011;42891;50.006;21.964;2023-06-14T02:00:45;20.50;;;11.80;;
56999;SDS011;42891;50.006;21.964;2023-06-14T02:04:47;14.98;;;11.02;;
56999;SDS011;42891;50.006;21.964;2023-06-14T02:08:47;11.73;;;8.93;;
56999;SDS011;42891;50.006;21.964;2023-06-14T02:12:48;13.55;;;8.77;;
56999;SDS011;42891;50.006;21.964;2023-06-14T02:16:48;11.73;;;8.38;;
56999;SDS011;42891;50.006;21.964;2023-06-14T02:20:49;12.38;;;7.80;;
56999;SDS011;42891;50.006;21.964;2023-06-14T02:24:49;10.15;;;7.20;;
56999;SDS011;42891;50.006;21.964;2023-06-14T02:28:50;10.50;;;7.25;;
56999;SDS011;42891;50.006;21.964;2023-06-14T02:32:50;10.60;;;7.00;;
56999;SDS011;42891;50.006;21.964;2023-06-14T02:36:51;12.75;;;10.80;;
56999;SDS011;42891;50.006;21.964;2023-06-14T02:40:52;19.75;;;14.07;;
56999;SDS011;42891;50.006;21.964;2023-06-14T02:44:53;20.80;;;15.18;;
56999;SDS011;42891;50.006;21.964;2023-06-14T02:48:53;19.02;;;12.65;;
56999;SDS011;42891;50.006;21.964;2023-06-14T02:52:53;16.42;;;14.10;;
56999;SDS011;42891;50.006;21.964;2023-06-14T02:56:55;14.38;;;11.75;;
56999;SDS011;42891;50.006;21.964;2023-06-14T03:00:56;20.60;;;15.18;;
56999;SDS011;42891;50.006;21.964;2023-06-14T03:04:56;18.73;;;15.35;;
56999;SDS011;42891;50.006;21.964;2023-06-14T03:09:01;16.75;;;14.20;;
56999;SDS011;42891;50.006;21.964;2023-06-14T03:13:04;21.30;;;16.02;;
56999;SDS011;42891;50.006;21.964;2023-06-14T03:17:04;18.88;;;13.25;;
56999;SDS011;42891;50.006;21.964;2023-06-14T03:21:05;16.55;;;12.93;;
56999;SDS011;42891;50.006;21.964;2023-06-14T03:25:08;14.02;;;11.02;;
56999;SDS011;42891;50.006;21.964;2023-06-14T03:29:09;14.90;;;9.80;;
56999;SDS011;42891;50.006;21.964;2023-06-14T03:33:09;13.65;;;10.57;;
56999;SDS011;42891;50.006;21.964;2023-06-14T03:37:10;14.90;;;11.02;;
56999;SDS011;42891;50.006;21.964;2023-06-14T03:41:11;20.23;;;10.55;;
56999;SDS011;42891;50.006;21.964;2023-06-14T03:45:11;20.60;;;14.75;;
56999;SDS011;42891;50.006;21.964;2023-06-14T03:49:12;15.98;;;11.80;;
56999;SDS011;42891;50.006;21.964;2023-06-14T03:53:12;17.48;;;14.13;;
56999;SDS011;42891;50.006;21.964;2023-06-14T03:57:13;20.98;;;15.20;;
56999;SDS011;42891;50.006;21.964;2023-06-14T04:01:13;21.45;;;15.10;;
56999;SDS011;42891;50.006;21.964;2023-06-14T04:05:14;16.88;;;14.90;;
56999;SDS011;42891;50.006;21.964;2023-06-14T04:09:16;18.00;;;12.13;;
56999;SDS011;42891;50.006;21.964;2023-06-14T04:13:18;20.20;;;11.70;;
56999;SDS011;42891;50.006;21.964;2023-06-14T04:17:19;23.40;;;13.77;;
56999;SDS011;42891;50.006;21.964;2023-06-14T04:21:19;15.07;;;11.05;;
56999;SDS011;42891;50.006;21.964;2023-06-14T04:25:20;16.30;;;11.32;;
56999;SDS011;42891;50.006;21.964;2023-06-14T04:29:20;16.65;;;10.98;;
56999;SDS011;42891;50.006;21.964;2023-06-14T04:33:21;22.85;;;15.77;;
56999;SDS011;42891;50.006;21.964;2023-06-14T04:37:22;17.00;;;12.80;;
56999;SDS011;42891;50.006;21.964;2023-06-14T04:41:23;13.60;;;10.65;;
56999;SDS011;42891;50.006;21.964;2023-06-14T04:45:30;16.00;;;11.15;;
56999;SDS011;42891;50.006;21.964;2023-06-14T04:49:31;19.08;;;14.13;;
56999;SDS011;42891;50.006;21.964;2023-06-14T04:53:32;22.50;;;16.25;;
56999;SDS011;42891;50.006;21.964;2023-06-14T04:57:32;22.45;;;15.93;;
56999;SDS011;42891;50.006;21.964;2023-06-14T05:01:33;23.52;;;16.77;;
56999;SDS011;42891;50.006;21.964;2023-06-14T05:05:34;26.80;;;18.42;;
56999;SDS011;42891;50.006;21.964;2023-06-14T05:09:35;27.80;;;20.60;;
56999;SDS011;42891;50.006;21.964;2023-06-14T05:13:36;25.02;;;15.57;;
56999;SDS011;42891;50.006;21.964;2023-06-14T05:17:36;26.25;;;15.55;;
56999;SDS011;42891;50.006;21.964;2023-06-14T05:21:37;25.60;;;18.27;;
56999;SDS011;42891;50.006;21.964;2023-06-14T05:25:38;25.33;;;18.80;;
56999;SDS011;42891;50.006;21.964;2023-06-14T05:29:38;28.77;;;22.02;;
56999;SDS011;42891;50.006;21.964;2023-06-14T05:33:38;18.70;;;15.20;;
56999;SDS011;42891;50.006;21.964;2023-06-14T05:37:39;23.13;;;17.98;;
56999;SDS011;42891;50.006;21.964;2023-06-14T05:41:39;26.20;;;18.52;;
56999;SDS011;42891;50.006;21.964;2023-06-14T05:45:39;30.10;;;22.95;;
56999;SDS011;42891;50.006;21.964;2023-06-14T05:49:40;28.42;;;18.08;;
56999;SDS011;42891;50.006;21.964;2023-06-14T05:53:40;24.63;;;16.25;;
56999;SDS011;42891;50.006;21.964;2023-06-14T05:57:40;22.10;;;14.60;;
56999;SDS011;42891;50.006;21.964;2023-06-14T06:01:41;24.58;;;17.15;;
56999;SDS011;42891;50.006;21.964;2023-06-14T06:05:42;25.48;;;17.80;;
56999;SDS011;42891;50.006;21.964;2023-06-14T06:09:42;26.75;;;17.85;;
56999;SDS011;42891;50.006;21.964;2023-06-14T06:13:43;25.92;;;16.02;;
56999;SDS011;42891;50.006;21.964;2023-06-14T06:17:44;25.98;;;17.08;;
56999;SDS011;42891;50.006;21.964;2023-06-14T06:21:44;25.38;;;16.15;;
56999;SDS011;42891;50.006;21.964;2023-06-14T06:25:44;23.17;;;16.27;;
56999;SDS011;42891;50.006;21.964;2023-06-14T06:29:45;22.40;;;17.83;;
56999;SDS011;42891;50.006;21.964;2023-06-14T06:33:45;24.50;;;18.05;;
56999;SDS011;42891;50.006;21.964;2023-06-14T06:37:46;27.63;;;16.70;;
56999;SDS011;42891;50.006;21.964;2023-06-14T06:41:46;28.65;;;17.35;;
56999;SDS011;42891;50.006;21.964;2023-06-14T06:45:46;24.48;;;18.60;;
56999;SDS011;42891;50.006;21.964;2023-06-14T06:49:46;29.73;;;18.75;;
56999;SDS011;42891;50.006;21.964;2023-06-14T06:53:52;28.00;;;19.67;;
56999;SDS011;42891;50.006;21.964;2023-06-14T06:57:53;30.67;;;19.42;;
56999;SDS011;42891;50.006;21.964;2023-06-14T07:01:53;27.45;;;18.40;;
56999;SDS011;42891;50.006;21.964;2023-06-14T07:05:54;31.50;;;25.15;;
56999;SDS011;42891;50.006;21.964;2023-06-14T07:09:54;28.40;;;20.48;;
56999;SDS011;42891;50.006;21.964;2023-06-14T07:13:57;32.38;;;19.35;;
56999;SDS011;42891;50.006;21.964;2023-06-14T07:17:57;29.87;;;18.87;;
56999;SDS011;42891;50.006;21.964;2023-06-14T07:21:59;29.02;;;19.33;;
56999;SDS011;42891;50.006;21.964;2023-06-14T07:26:00;25.15;;;18.55;;
56999;SDS011;42891;50.006;21.964;2023-06-14T07:30:00;25.40;;;16.98;;
56999;SDS011;42891;50.006;21.964;2023-06-14T07:34:00;18.48;;;15.35;;
56999;SDS011;42891;50.006;21.964;2023-06-14T07:38:01;17.15;;;14.20;;
56999;SDS011;42891;50.006;21.964;2023-06-14T07:42:01;20.33;;;16.45;;
56999;SDS011;42891;50.006;21.964;2023-06-14T07:46:02;17.73;;;13.85;;
56999;SDS011;42891;50.006;21.964;2023-06-14T07:50:02;20.02;;;15.52;;
56999;SDS011;42891;50.006;21.964;2023-06-14T07:54:03;20.23;;;15.35;;
56999;SDS011;42891;50.006;21.964;2023-06-14T07:58:05;19.70;;;16.05;;
56999;SDS011;42891;50.006;21.964;2023-06-14T08:02:08;23.83;;;17.63;;
56999;SDS011;42891;50.006;21.964;2023-06-14T08:06:08;19.00;;;15.33;;
56999;SDS011;42891;50.006;21.964;2023-06-14T08:10:09;20.40;;;15.50;;
56999;SDS011;42891;50.006;21.964;2023-06-14T08:14:10;20.20;;;14.48;;
56999;SDS011;42891;50.006;21.964;2023-06-14T08:18:11;19.20;;;14.15;;
56999;SDS011;42891;50.006;21.964;2023-06-14T08:22:11;19.90;;;13.45;;
56999;SDS011;42891;50.006;21.964;2023-06-14T08:26:12;21.75;;;15.07;;
56999;SDS011;42891;50.006;21.964;2023-06-14T08:30:12;23.52;;;18.83;;
56999;SDS011;42891;50.006;21.964;2023-06-14T08:34:13;21.20;;;13.82;;
56999;SDS011;42891;50.006;21.964;2023-06-14T08:38:14;17.13;;;13.93;;
56999;SDS011;42891;50.006;21.964;2023-06-14T08:42:14;16.40;;;14.20;;
56999;SDS011;42891;50.006;21.964;2023-06-14T08:46:17;20.02;;;14.98;;
56999;SDS011;42891;50.006;21.964;2023-06-14T08:50:20;15.70;;;13.48;;
56999;SDS011;42891;50.006;21.964;2023-06-14T08:54:21;25.23;;;16.60;;
56999;SDS011;42891;50.006;21.964;2023-06-14T08:58:24;24.95;;;16.75;;
56999;SDS011;42891;50.006;21.964;2023-06-14T09:02:24;23.67;;;16.30;;
56999;SDS011;42891;50.006;21.964;2023-06-14T09:06:25;23.20;;;16.05;;
56999;SDS011;42891;50.006;21.964;2023-06-14T09:10:28;21.27;;;15.65;;
56999;SDS011;42891;50.006;21.964;2023-06-14T09:14:28;22.15;;;14.43;;
56999;SDS011;42891;50.006;21.964;2023-06-14T09:18:38;23.35;;;18.67;;
56999;SDS011;42891;50.006;21.964;2023-06-14T09:22:47;20.17;;;15.13;;
56999;SDS011;42891;50.006;21.964;2023-06-14T09:26:47;22.95;;;18.35;;
56999;SDS011;42891;50.006;21.964;2023-06-14T09:30:48;17.50;;;14.50;;
56999;SDS011;42891;50.006;21.964;2023-06-14T09:34:48;21.65;;;15.45;;
56999;SDS011;42891;50.006;21.964;2023-06-14T09:38:52;20.35;;;14.95;;
56999;SDS011;42891;50.006;21.964;2023-06-14T09:42:56;18.38;;;13.70;;
56999;SDS011;42891;50.006;21.964;2023-06-14T09:46:57;18.50;;;14.38;;
56999;SDS011;42891;50.006;21.964;2023-06-14T09:50:58;18.67;;;13.63;;
56999;SDS011;42891;50.006;21.964;2023-06-14T09:54:59;18.73;;;12.27;;
56999;SDS011;42891;50.006;21.964;2023-06-14T09:59:00;15.52;;;12.38;;
56999;SDS011;42891;50.006;21.964;2023-06-14T10:03:12;15.80;;;12.40;;
56999;SDS011;42891;50.006;21.964;2023-06-14T10:07:18;15.40;;;11.93;;
56999;SDS011;42891;50.006;21.964;2023-06-14T10:11:20;13.18;;;11.70;;
56999;SDS011;42891;50.006;21.964;2023-06-14T10:15:28;15.63;;;11.38;;
56999;SDS011;42891;50.006;21.964;2023-06-14T10:19:37;13.48;;;11.07;;
56999;SDS011;42891;50.006;21.964;2023-06-14T10:23:44;14.23;;;12.18;;
56999;SDS011;42891;50.006;21.964;2023-06-14T10:27:47;15.52;;;11.35;;
56999;SDS011;42891;50.006;21.964;2023-06-14T10:31:50;15.13;;;11.27;;
56999;SDS011;42891;50.006;21.964;2023-06-14T10:35:54;14.40;;;10.00;;
56999;SDS011;42891;50.006;21.964;2023-06-14T10:40:07;15.32;;;9.98;;
56999;SDS011;42891;50.006;21.964;2023-06-14T10:48:29;15.75;;;10.45;;
56999;SDS011;42891;50.006;21.964;2023-06-14T10:52:32;17.20;;;10.95;;
56999;SDS011;42891;50.006;21.964;2023-06-14T11:00:35;12.95;;;9.05;;
56999;SDS011;42891;50.006;21.964;2023-06-14T11:04:48;12.30;;;9.25;;
56999;SDS011;42891;50.006;21.964;2023-06-14T11:13:36;15.82;;;9.38;;
56999;SDS011;42891;50.006;21.964;2023-06-14T11:17:38;13.15;;;8.93;;
56999;SDS011;42891;50.006;21.964;2023-06-14T11:21:41;15.57;;;9.32;;
56999;SDS011;42891;50.006;21.964;2023-06-14T11:25:42;16.77;;;9.48;;
56999;SDS011;42891;50.006;21.964;2023-06-14T11:29:48;10.10;;;8.93;;
56999;SDS011;42891;50.006;21.964;2023-06-14T11:33:50;12.60;;;9.25;;
56999;SDS011;42891;50.006;21.964;2023-06-14T11:37:57;13.27;;;9.40;;
56999;SDS011;42891;50.006;21.964;2023-06-14T11:41:57;12.10;;;9.93;;
56999;SDS011;42891;50.006;21.964;2023-06-14T11:46:01;14.63;;;9.90;;
56999;SDS011;42891;50.006;21.964;2023-06-14T11:50:02;13.40;;;9.63;;
56999;SDS011;42891;50.006;21.964;2023-06-14T11:54:04;10.02;;;9.02;;
56999;SDS011;42891;50.006;21.964;2023-06-14T11:58:06;12.02;;;9.82;;
56999;SDS011;42891;50.006;21.964;2023-06-14T12:02:07;9.93;;;8.90;;
56999;SDS011;42891;50.006;21.964;2023-06-14T12:06:08;9.90;;;8.90;;
56999;SDS011;42891;50.006;21.964;2023-06-14T12:10:08;12.23;;;9.70;;
56999;SDS011;42891;50.006;21.964;2023-06-14T12:14:11;15.75;;;10.32;;
56999;SDS011;42891;50.006;21.964;2023-06-14T12:18:12;11.00;;;9.90;;
56999;SDS011;42891;50.006;21.964;2023-06-14T12:22:12;14.27;;;11.27;;
56999;SDS011;42891;50.006;21.964;2023-06-14T12:26:14;14.48;;;11.63;;
56999;SDS011;42891;50.006;21.964;2023-06-14T12:30:18;18.17;;;12.77;;
56999;SDS011;42891;50.006;21.964;2023-06-14T12:34:18;15.60;;;11.73;;
56999;SDS011;42891;50.006;21.964;2023-06-14T12:38:19;12.73;;;11.43;;
56999;SDS011;42891;50.006;21.964;2023-06-14T12:42:19;11.77;;;10.50;;
56999;SDS011;42891;50.006;21.964;2023-06-14T12:46:19;17.17;;;9.93;;
56999;SDS011;42891;50.006;21.964;2023-06-14T12:50:20;13.15;;;9.68;;
56999;SDS011;42891;50.006;21.964;2023-06-14T12:54:21;11.80;;;9.65;;
56999;SDS011;42891;50.006;21.964;2023-06-14T12:58:25;11.73;;;9.40;;
56999;SDS011;42891;50.006;21.964;2023-06-14T13:02:25;12.97;;;10.20;;
56999;SDS011;42891;50.006;21.964;2023-06-14T13:06:26;13.65;;;11.00;;
56999;SDS011;42891;50.006;21.964;2023-06-14T13:10:26;13.82;;;10.00;;
56999;SDS011;42891;50.006;21.964;2023-06-14T13:14:27;12.88;;;9.55;;
56999;SDS011;42891;50.006;21.964;2023-06-14T13:18:27;10.27;;;8.85;;
56999;SDS011;42891;50.006;21.964;2023-06-14T13:22:28;15.60;;;9.40;;
56999;SDS011;42891;50.006;21.964;2023-06-14T13:26:28;10.77;;;8.85;;
56999;SDS011;42891;50.006;21.964;2023-06-14T13:30:28;12.13;;;9.30;;
56999;SDS011;42891;50.006;21.964;2023-06-14T13:34:29;12.30;;;9.20;;
56999;SDS011;42891;50.006;21.964;2023-06-14T13:38:29;10.23;;;9.23;;
56999;SDS011;42891;50.006;21.964;2023-06-14T13:42:30;11.57;;;8.55;;
56999;SDS011;42891;50.006;21.964;2023-06-14T13:46:32;14.00;;;9.93;;
56999;SDS011;42891;50.006;21.964;2023-06-14T13:50:32;10.85;;;9.02;;
56999;SDS011;42891;50.006;21.964;2023-06-14T13:54:33;14.48;;;10.07;;
56999;SDS011;42891;50.006;21.964;2023-06-14T13:58:33;15.75;;;9.07;;
56999;SDS011;42891;50.006;21.964;2023-06-14T14:02:34;11.15;;;7.93;;
56999;SDS011;42891;50.006;21.964;2023-06-14T14:06:34;7.80;;;7.00;;
56999;SDS011;42891;50.006;21.964;2023-06-14T14:10:35;9.02;;;7.28;;
56999;SDS011;42891;50.006;21.964;2023-06-14T14:14:35;12.68;;;8.00;;
56999;SDS011;42891;50.006;21.964;2023-06-14T14:18:36;11.90;;;8.57;;
56999;SDS011;42891;50.006;21.964;2023-06-14T14:22:37;12.35;;;8.75;;
56999;SDS011;42891;50.006;21.964;2023-06-14T14:26:37;12.35;;;8.82;;
56999;SDS011;42891;50.006;21.964;2023-06-14T14:30:38;9.70;;;8.32;;
56999;SDS011;42891;50.006;21.964;2023-06-14T14:34:40;12.07;;;9.30;;
56999;SDS011;42891;50.006;21.964;2023-06-14T14:38:40;17.48;;;9.48;;
56999;SDS011;42891;50.006;21.964;2023-06-14T14:42:40;11.55;;;9.77;;
56999;SDS011;42891;50.006;21.964;2023-06-14T14:46:41;11.00;;;8.23;;
56999;SDS011;42891;50.006;21.964;2023-06-14T14:50:41;14.82;;;8.93;;
56999;SDS011;42891;50.006;21.964;2023-06-14T14:54:42;12.90;;;8.15;;
56999;SDS011;42891;50.006;21.964;2023-06-14T14:58:42;12.70;;;8.20;;
56999;SDS011;42891;50.006;21.964;2023-06-14T15:02:42;14.02;;;8.00;;
56999;SDS011;42891;50.006;21.964;2023-06-14T15:06:43;11.07;;;8.00;;
56999;SDS011;42891;50.006;21.964;2023-06-14T15:10:43;9.57;;;7.72;;
56999;SDS011;42891;50.006;21.964;2023-06-14T15:14:45;10.35;;;7.30;;
56999;SDS011;42891;50.006;21.964;2023-06-14T15:18:45;9.93;;;7.50;;
56999;SDS011;42891;50.006;21.964;2023-06-14T15:22:46;9.93;;;6.95;;
56999;SDS011;42891;50.006;21.964;2023-06-14T15:26:46;11.10;;;8.05;;
56999;SDS011;42891;50.006;21.964;2023-06-14T15:30:46;9.23;;;7.87;;
56999;SDS011;42891;50.006;21.964;2023-06-14T15:34:47;12.35;;;7.40;;
56999;SDS011;42891;50.006;21.964;2023-06-14T15:38:48;8.50;;;7.43;;
56999;SDS011;42891;50.006;21.964;2023-06-14T15:42:48;9.10;;;7.43;;
56999;SDS011;42891;50.006;21.964;2023-06-14T15:46:48;10.13;;;7.30;;
56999;SDS011;42891;50.006;21.964;2023-06-14T15:50:49;9.63;;;7.57;;
56999;SDS011;42891;50.006;21.964;2023-06-14T15:54:49;9.10;;;7.72;;
56999;SDS011;42891;50.006;21.964;2023-06-14T15:58:50;9.90;;;7.78;;
56999;SDS011;42891;50.006;21.964;2023-06-14T16:02:50;15.13;;;9.85;;
56999;SDS011;42891;50.006;21.964;2023-06-14T16:06:50;10.38;;;8.75;;
56999;SDS011;42891;50.006;21.964;2023-06-14T16:10:51;9.80;;;8.15;;
56999;SDS011;42891;50.006;21.964;2023-06-14T16:14:51;14.10;;;8.35;;
56999;SDS011;42891;50.006;21.964;2023-06-14T16:18:52;14.57;;;8.75;;
56999;SDS011;42891;50.006;21.964;2023-06-14T16:22:52;12.18;;;8.07;;
56999;SDS011;42891;50.006;21.964;2023-06-14T16:26:53;9.55;;;8.35;;
56999;SDS011;42891;50.006;21.964;2023-06-14T16:30:54;10.80;;;8.75;;
56999;SDS011;42891;50.006;21.964;2023-06-14T16:34:54;10.77;;;8.38;;
56999;SDS011;42891;50.006;21.964;2023-06-14T16:38:55;9.73;;;8.00;;
56999;SDS011;42891;50.006;21.964;2023-06-14T16:42:55;12.20;;;8.80;;
56999;SDS011;42891;50.006;21.964;2023-06-14T16:46:55;15.27;;;9.25;;
56999;SDS011;42891;50.006;21.964;2023-06-14T16:50:56;12.10;;;9.07;;
56999;SDS011;42891;50.006;21.964;2023-06-14T16:54:56;12.63;;;9.13;;
56999;SDS011;42891;50.006;21.964;2023-06-14T16:58:57;11.55;;;8.80;;
56999;SDS011;42891;50.006;21.964;2023-06-14T17:02:58;13.85;;;8.77;;
56999;SDS011;42891;50.006;21.964;2023-06-14T17:06:59;12.00;;;8.55;;
56999;SDS011;42891;50.006;21.964;2023-06-14T17:11:00;12.60;;;9.27;;
56999;SDS011;42891;50.006;21.964;2023-06-14T17:15:01;12.50;;;9.35;;
56999;SDS011;42891;50.006;21.964;2023-06-14T17:19:02;14.18;;;9.48;;
56999;SDS011;42891;50.006;21.964;2023-06-14T17:23:04;15.32;;;9.43;;
56999;SDS011;42891;50.006;21.964;2023-06-14T17:27:05;14.52;;;8.80;;
56999;SDS011;42891;50.006;21.964;2023-06-14T17:31:06;17.00;;;10.38;;
56999;SDS011;42891;50.006;21.964;2023-06-14T17:35:06;19.15;;;10.98;;
56999;SDS011;42891;50.006;21.964;2023-06-14T17:39:07;17.33;;;11.27;;
56999;SDS011;42891;50.006;21.964;2023-06-14T17:43:08;19.00;;;10.40;;
56999;SDS011;42891;50.006;21.964;2023-06-14T17:47:08;11.02;;;8.02;;
56999;SDS011;42891;50.006;21.964;2023-06-14T17:51:09;8.53;;;6.20;;
56999;SDS011;42891;50.006;21.964;2023-06-14T17:55:09;6.05;;;5.45;;
56999;SDS011;42891;50.006;21.964;2023-06-14T17:59:10;5.57;;;4.88;;
56999;SDS011;42891;50.006;21.964;2023-06-14T18:03:10;7.45;;;4.95;;
56999;SDS011;42891;50.006;21.964;2023-06-14T18:07:11;5.82;;;4.60;;
56999;SDS011;42891;50.006;21.964;2023-06-14T18:11:11;4.28;;;3.85;;
56999;SDS011;42891;50.006;21.964;2023-06-14T18:15:12;9.30;;;4.25;;
56999;SDS011;42891;50.006;21.964;2023-06-14T18:19:12;6.20;;;3.85;;
56999;SDS011;42891;50.006;21.964;2023-06-14T18:23:17;4.60;;;3.42;;
56999;SDS011;42891;50.006;21.964;2023-06-14T18:27:17;3.85;;;3.45;;
56999;SDS011;42891;50.006;21.964;2023-06-14T18:31:18;6.30;;;3.35;;
56999;SDS011;42891;50.006;21.964;2023-06-14T18:35:19;11.13;;;3.83;;
56999;SDS011;42891;50.006;21.964;2023-06-14T18:39:19;5.18;;;3.67;;
56999;SDS011;42891;50.006;21.964;2023-06-14T18:43:19;7.07;;;4.20;;
56999;SDS011;42891;50.006;21.964;2023-06-14T18:47:20;6.05;;;4.07;;
56999;SDS011;42891;50.006;21.964;2023-06-14T18:51:20;7.00;;;4.53;;
56999;SDS011;42891;50.006;21.964;2023-06-14T18:55:20;7.07;;;3.92;;
56999;SDS011;42891;50.006;21.964;2023-06-14T18:59:23;14.95;;;7.97;;
56999;SDS011;42891;50.006;21.964;2023-06-14T19:03:23;8.52;;;5.20;;
56999;SDS011;42891;50.006;21.964;2023-06-14T19:07:23;6.82;;;4.28;;
56999;SDS011;42891;50.006;21.964;2023-06-14T19:11:24;7.88;;;4.25;;
56999;SDS011;42891;50.006;21.964;2023-06-14T19:15:24;7.13;;;4.87;;
56999;SDS011;42891;50.006;21.964;2023-06-14T19:19:26;6.68;;;4.60;;
56999;SDS011;42891;50.006;21.964;2023-06-14T19:23:26;11.27;;;5.70;;
56999;SDS011;42891;50.006;21.964;2023-06-14T19:27:26;5.82;;;4.40;;
56999;SDS011;42891;50.006;21.964;2023-06-14T19:31:27;5.50;;;4.47;;
56999;SDS011;42891;50.006;21.964;2023-06-14T19:35:27;6.28;;;4.30;;
56999;SDS011;42891;50.006;21.964;2023-06-14T19:39:27;7.47;;;4.88;;
56999;SDS011;42891;50.006;21.964;2023-06-14T19:43:28;10.18;;;5.10;;
56999;SDS011;42891;50.006;21.964;2023-06-14T19:47:28;9.15;;;5.03;;
56999;SDS011;42891;50.006;21.964;2023-06-14T19:51:28;8.65;;;5.30;;
56999;SDS011;42891;50.006;21.964;2023-06-14T19:55:30;13.88;;;6.05;;
56999;SDS011;42891;50.006;21.964;2023-06-14T19:59:30;10.05;;;5.78;;
56999;SDS011;42891;50.006;21.964;2023-06-14T20:03:33;10.25;;;5.35;;
56999;SDS011;42891;50.006;21.964;2023-06-14T20:07:33;13.32;;;6.30;;
56999;SDS011;42891;50.006;21.964;2023-06-14T20:11:34;8.40;;;5.82;;
56999;SDS011;42891;50.006;21.964;2023-06-14T20:15:34;11.77;;;6.43;;
56999;SDS011;42891;50.006;21.964;2023-06-14T20:19:34;9.90;;;5.70;;
56999;SDS011;42891;50.006;21.964;2023-06-14T20:23:35;11.83;;;6.07;;
56999;SDS011;42891;50.006;21.964;2023-06-14T20:27:36;11.40;;;6.40;;
56999;SDS011;42891;50.006;21.964;2023-06-14T20:31:36;17.13;;;7.25;;
56999;SDS011;42891;50.006;21.964;2023-06-14T20:35:37;11.60;;;6.78;;
56999;SDS011;42891;50.006;21.964;2023-06-14T20:39:39;12.35;;;7.88;;
56999;SDS011;42891;50.006;21.964;2023-06-14T20:43:39;11.10;;;7.82;;
56999;SDS011;42891;50.006;21.964;2023-06-14T20:47:40;11.32;;;6.63;;
56999;SDS011;42891;50.006;21.964;2023-06-14T20:51:41;12.65;;;7.50;;
56999;SDS011;42891;50.006;21.964;2023-06-14T20:55:41;12.07;;;7.30;;
56999;SDS011;42891;50.006;21.964;2023-06-14T20:59:41;11.93;;;8.00;;
56999;SDS011;42891;50.006;21.964;2023-06-14T21:03:42;15.82;;;9.13;;
56999;SDS011;42891;50.006;21.964;2023-06-14T21:07:42;15.30;;;9.00;;
56999;SDS011;42891;50.006;21.964;2023-06-14T21:11:42;12.68;;;9.13;;
56999;SDS011;42891;50.006;21.964;2023-06-14T21:15:43;16.45;;;9.02;;
56999;SDS011;42891;50.006;21.964;2023-06-14T21:19:43;13.95;;;8.52;;
56999;SDS011;42891;50.006;21.964;2023-06-14T21:23:44;13.73;;;8.65;;
56999;SDS011;42891;50.006;21.964;2023-06-14T21:27:44;14.02;;;8.77;;
56999;SDS011;42891;50.006;21.964;2023-06-14T21:31:45;20.50;;;10.03;;
56999;SDS011;42891;50.006;21.964;2023-06-14T21:35:45;19.55;;;9.80;;
56999;SDS011;42891;50.006;21.964;2023-06-14T21:39:45;22.17;;;11.05;;
56999;SDS011;42891;50.006;21.964;2023-06-14T21:43:46;18.77;;;10.25;;
56999;SDS011;42891;50.006;21.964;2023-06-14T21:47:46;19.53;;;10.43;;
56999;SDS011;42891;50.006;21.964;2023-06-14T21:51:46;17.30;;;10.82;;
56999;SDS011;42891;50.006;21.964;2023-06-14T21:55:47;18.40;;;10.05;;
56999;SDS011;42891;50.006;21.964;2023-06-14T21:59:47;14.63;;;10.27;;
56999;SDS011;42891;50.006;21.964;2023-06-14T22:03:47;14.18;;;9.45;;
56999;SDS011;42891;50.006;21.964;2023-06-14T22:07:48;15.95;;;9.90;;
56999;SDS011;42891;50.006;21.964;2023-06-14T22:11:49;16.33;;;9.70;;
56999;SDS011;42891;50.006;21.964;2023-06-14T22:15:49;16.83;;;9.90;;
56999;SDS011;42891;50.006;21.964;2023-06-14T22:19:50;19.23;;;9.55;;
56999;SDS011;42891;50.006;21.964;2023-06-14T22:23:51;14.13;;;9.30;;
56999;SDS011;42891;50.006;21.964;2023-06-14T22:27:51;15.63;;;8.95;;
56999;SDS011;42891;50.006;21.964;2023-06-14T22:31:52;11.27;;;8.48;;
56999;SDS011;42891;50.006;21.964;2023-06-14T22:35:53;13.05;;;8.68;;
56999;SDS011;42891;50.006;21.964;2023-06-14T22:39:53;13.15;;;8.57;;
56999;SDS011;42891;50.006;21.964;2023-06-14T22:43:53;11.50;;;8.77;;
56999;SDS011;42891;50.006;21.964;2023-06-14T22:47:54;14.03;;;8.83;;
56999;SDS011;42891;50.006;21.964;2023-06-14T22:51:56;16.95;;;8.45;;
56999;SDS011;42891;50.006;21.964;2023-06-14T22:56:00;14.23;;;9.70;;
56999;SDS011;42891;50.006;21.964;2023-06-14T23:00:01;13.37;;;8.73;;
56999;SDS011;42891;50.006;21.964;2023-06-14T23:04:11;15.63;;;8.57;;
56999;SDS011;42891;50.006;21.964;2023-06-14T23:08:11;16.23;;;9.10;;
56999;SDS011;42891;50.006;21.964;2023-06-14T23:12:12;12.10;;;8.52;;
56999;SDS011;42891;50.006;21.964;2023-06-14T23:16:13;14.77;;;9.30;;
56999;SDS011;42891;50.006;21.964;2023-06-14T23:20:14;11.05;;;9.10;;
56999;SDS011;42891;50.006;21.964;2023-06-14T23:24:15;20.48;;;11.75;;
56999;SDS011;42891;50.006;21.964;2023-06-14T23:28:20;16.58;;;10.55;;
56999;SDS011;42891;50.006;21.964;2023-06-14T23:32:20;15.52;;;10.23;;
56999;SDS011;42891;50.006;21.964;2023-06-14T23:36:24;15.45;;;10.32;;
56999;SDS011;42891;50.006;21.964;2023-06-14T23:40:30;15.00;;;10.10;;
56999;SDS011;42891;50.006;21.964;2023-06-14T23:44:32;14.88;;;10.32;;